Airfield :
LOGIN :

Register | Disclaimer

   EN    FR    IT 

 










Legend :    VFR   Marginal VFR   IFR   Intensive IFR   Very Intensive IFR
Visi :
Ceiling :
>= 8 km
>= 3000ft
5 to 8 km
1000 to 3000 ft
1500m to 5 km
500 to 1000 ft
800 to 1500m
200 to 500 ft
< 800m
< 200 ft
Symbols :   Thunderstorms  Fog  Heavy snow  Heavy precipitations  Wind > 20 kt
SIGMETs :     Misc.  Thunderstorms  Icing  Turbulence  Mountain Waves  Volcanic Ashes







- Airport Elevation : 330 ft
- IATA code : LVA
- Download approach charts


LFOV - Laval-Entrammes

CURRENT METAR :
  • 230530Z AUTO 02006KT 6000 NSC 05/04 Q1026

EXPIRED METARs :
  • 230500Z AUTO 03006KT 6000 NSC 04/04 Q1025
  • 230430Z AUTO 03005KT 7000 NSC 04/03 Q1025
  • 230400Z AUTO 36004KT 7000 NSC 05/04 Q1025
  • 230330Z AUTO 02006KT 8000 NSC 05/04 Q1025
  • 230300Z AUTO 01006KT 8000 NSC 05/04 Q1025
  • 230230Z AUTO 03007KT 9999 FEW040 06/05 Q1025

TAF N/A
No reported NOTAMs for that airfield.



MET'MAP, your aeronautical weather chart ! - Copyright ORBIFLY December 2007 - Disclaimer

ORBIFLY MET'MAP TEAM :

Programming & Development : Alexandra Zaïnal
Concept & Development : Baudouin d'Aumeries
Co-Development & Prog : Marc-Olivier Méhu
Technical & hardware support : Manuel Goepfert

Contact : metmap@orbifly.com




SOURCES & CREDITS :

   NOAA